sensor_id;sensor_type;location;lat;lon;timestamp;P1;durP1;ratioP1;P2;durP2;ratioP2
22024;SDS011;11176;51.448;6.650;2023-03-14T00:00:16;6.00;;;1.75;;
22024;SDS011;11176;51.448;6.650;2023-03-14T00:02:42;4.43;;;1.70;;
22024;SDS011;11176;51.448;6.650;2023-03-14T00:05:09;9.80;;;1.60;;
22024;SDS011;11176;51.448;6.650;2023-03-14T00:07:37;5.18;;;1.45;;
22024;SDS011;11176;51.448;6.650;2023-03-14T00:10:05;7.32;;;1.70;;
22024;SDS011;11176;51.448;6.650;2023-03-14T00:12:34;7.63;;;1.73;;
22024;SDS011;11176;51.448;6.650;2023-03-14T00:15:00;5.60;;;1.50;;
22024;SDS011;11176;51.448;6.650;2023-03-14T00:17:30;5.80;;;1.75;;
22024;SDS011;11176;51.448;6.650;2023-03-14T00:19:56;6.22;;;1.70;;
22024;SDS011;11176;51.448;6.650;2023-03-14T00:22:23;5.22;;;1.90;;
22024;SDS011;11176;51.448;6.650;2023-03-14T00:24:50;6.38;;;1.88;;
22024;SDS011;11176;51.448;6.650;2023-03-14T00:27:16;7.43;;;1.85;;
22024;SDS011;11176;51.448;6.650;2023-03-14T00:29:43;9.68;;;1.95;;
22024;SDS011;11176;51.448;6.650;2023-03-14T00:32:10;8.48;;;1.80;;
22024;SDS011;11176;51.448;6.650;2023-03-14T00:34:38;5.95;;;1.75;;
22024;SDS011;11176;51.448;6.650;2023-03-14T00:37:06;10.38;;;2.22;;
22024;SDS011;11176;51.448;6.650;2023-03-14T00:39:32;8.73;;;2.00;;
22024;SDS011;11176;51.448;6.650;2023-03-14T00:41:59;9.63;;;2.22;;
22024;SDS011;11176;51.448;6.650;2023-03-14T00:44:27;6.40;;;1.60;;
22024;SDS011;11176;51.448;6.650;2023-03-14T00:46:53;4.35;;;1.48;;
22024;SDS011;11176;51.448;6.650;2023-03-14T00:49:20;6.20;;;1.55;;
22024;SDS011;11176;51.448;6.650;2023-03-14T00:51:49;7.50;;;1.58;;
22024;SDS011;11176;51.448;6.650;2023-03-14T00:54:18;5.13;;;1.52;;
22024;SDS011;11176;51.448;6.650;2023-03-14T00:56:45;7.13;;;1.42;;
22024;SDS011;11176;51.448;6.650;2023-03-14T00:59:12;5.22;;;1.30;;
22024;SDS011;11176;51.448;6.650;2023-03-14T01:01:39;6.15;;;1.55;;
22024;SDS011;11176;51.448;6.650;2023-03-14T01:04:06;8.77;;;1.77;;
22024;SDS011;11176;51.448;6.650;2023-03-14T01:06:32;5.22;;;1.38;;
22024;SDS011;11176;51.448;6.650;2023-03-14T01:08:59;7.93;;;1.40;;
22024;SDS011;11176;51.448;6.650;2023-03-14T01:11:30;5.05;;;1.60;;
22024;SDS011;11176;51.448;6.650;2023-03-14T01:13:58;5.22;;;1.20;;
22024;SDS011;11176;51.448;6.650;2023-03-14T01:16:28;6.97;;;1.20;;
22024;SDS011;11176;51.448;6.650;2023-03-14T01:18:59;5.55;;;1.17;;
22024;SDS011;11176;51.448;6.650;2023-03-14T01:21:30;3.53;;;1.20;;
22024;SDS011;11176;51.448;6.650;2023-03-14T01:23:59;5.43;;;1.42;;
22024;SDS011;11176;51.448;6.650;2023-03-14T01:26:29;8.38;;;1.65;;
22024;SDS011;11176;51.448;6.650;2023-03-14T01:28:57;5.28;;;1.45;;
22024;SDS011;11176;51.448;6.650;2023-03-14T01:31:25;4.88;;;1.27;;
22024;SDS011;11176;51.448;6.650;2023-03-14T01:33:52;7.68;;;1.60;;
22024;SDS011;11176;51.448;6.650;2023-03-14T01:36:19;5.60;;;1.50;;
22024;SDS011;11176;51.448;6.650;2023-03-14T01:38:45;8.45;;;1.55;;
22024;SDS011;11176;51.448;6.650;2023-03-14T01:41:19;5.07;;;1.35;;
22024;SDS011;11176;51.448;6.650;2023-03-14T01:43:48;4.78;;;1.40;;
22024;SDS011;11176;51.448;6.650;2023-03-14T01:46:32;4.25;;;1.17;;
22024;SDS011;11176;51.448;6.650;2023-03-14T01:52:10;7.38;;;1.48;;
22024;SDS011;11176;51.448;6.650;2023-03-14T01:54:55;6.15;;;1.20;;
22024;SDS011;11176;51.448;6.650;2023-03-14T01:57:33;5.32;;;1.10;;
22024;SDS011;11176;51.448;6.650;2023-03-14T02:00:07;5.22;;;1.33;;
22024;SDS011;11176;51.448;6.650;2023-03-14T02:02:39;4.88;;;1.20;;
22024;SDS011;11176;51.448;6.650;2023-03-14T02:07:45;5.35;;;1.20;;
22024;SDS011;11176;51.448;6.650;2023-03-14T02:10:21;5.82;;;1.40;;
22024;SDS011;11176;51.448;6.650;2023-03-14T02:12:50;5.88;;;1.30;;
22024;SDS011;11176;51.448;6.650;2023-03-14T02:15:40;6.60;;;1.33;;
22024;SDS011;11176;51.448;6.650;2023-03-14T02:18:30;7.13;;;1.45;;
22024;SDS011;11176;51.448;6.650;2023-03-14T02:21:41;7.00;;;1.70;;
22024;SDS011;11176;51.448;6.650;2023-03-14T02:27:09;5.20;;;1.50;;
22024;SDS011;11176;51.448;6.650;2023-03-14T02:29:52;6.68;;;1.60;;
22024;SDS011;11176;51.448;6.650;2023-03-14T02:32:23;7.20;;;1.35;;
22024;SDS011;11176;51.448;6.650;2023-03-14T02:34:55;6.10;;;1.45;;
22024;SDS011;11176;51.448;6.650;2023-03-14T02:37:27;7.22;;;1.52;;
22024;SDS011;11176;51.448;6.650;2023-03-14T02:40:02;6.40;;;1.27;;
22024;SDS011;11176;51.448;6.650;2023-03-14T02:42:32;5.72;;;1.40;;
22024;SDS011;11176;51.448;6.650;2023-03-14T02:47:39;7.47;;;1.85;;
22024;SDS011;11176;51.448;6.650;2023-03-14T02:50:14;6.65;;;1.83;;
22024;SDS011;11176;51.448;6.650;2023-03-14T02:52:44;7.50;;;1.63;;
22024;SDS011;11176;51.448;6.650;2023-03-14T02:55:11;4.38;;;1.60;;
22024;SDS011;11176;51.448;6.650;2023-03-14T02:57:40;8.55;;;1.63;;
22024;SDS011;11176;51.448;6.650;2023-03-14T03:00:07;7.38;;;1.60;;
22024;SDS011;11176;51.448;6.650;2023-03-14T03:02:36;6.07;;;1.60;;
22024;SDS011;11176;51.448;6.650;2023-03-14T03:05:02;5.25;;;1.77;;
22024;SDS011;11176;51.448;6.650;2023-03-14T03:07:29;7.75;;;1.77;;
22024;SDS011;11176;51.448;6.650;2023-03-14T03:09:57;4.80;;;1.67;;
22024;SDS011;11176;51.448;6.650;2023-03-14T03:12:23;11.27;;;1.75;;
22024;SDS011;11176;51.448;6.650;2023-03-14T03:14:50;6.63;;;1.80;;
22024;SDS011;11176;51.448;6.650;2023-03-14T03:17:17;5.00;;;1.20;;
22024;SDS011;11176;51.448;6.650;2023-03-14T03:19:43;7.35;;;1.88;;
22024;SDS011;11176;51.448;6.650;2023-03-14T03:22:10;9.38;;;2.08;;
22024;SDS011;11176;51.448;6.650;2023-03-14T03:24:39;8.60;;;1.73;;
22024;SDS011;11176;51.448;6.650;2023-03-14T03:27:06;6.07;;;1.63;;
22024;SDS011;11176;51.448;6.650;2023-03-14T03:29:32;7.80;;;2.10;;
22024;SDS011;11176;51.448;6.650;2023-03-14T03:31:59;6.60;;;1.73;;
22024;SDS011;11176;51.448;6.650;2023-03-14T03:34:26;5.82;;;1.55;;
22024;SDS011;11176;51.448;6.650;2023-03-14T03:36:58;7.97;;;2.00;;
22024;SDS011;11176;51.448;6.650;2023-03-14T03:39:27;6.90;;;1.92;;
22024;SDS011;11176;51.448;6.650;2023-03-14T03:41:55;6.20;;;1.70;;
22024;SDS011;11176;51.448;6.650;2023-03-14T03:44:21;8.88;;;1.38;;
22024;SDS011;11176;51.448;6.650;2023-03-14T03:46:48;10.77;;;1.90;;
22024;SDS011;11176;51.448;6.650;2023-03-14T03:49:14;8.75;;;1.98;;
22024;SDS011;11176;51.448;6.650;2023-03-14T03:51:41;12.27;;;2.10;;
22024;SDS011;11176;51.448;6.650;2023-03-14T03:54:07;7.53;;;1.58;;
22024;SDS011;11176;51.448;6.650;2023-03-14T03:56:34;7.55;;;1.63;;
22024;SDS011;11176;51.448;6.650;2023-03-14T03:59:01;9.77;;;2.00;;
22024;SDS011;11176;51.448;6.650;2023-03-14T04:01:27;7.32;;;1.50;;
22024;SDS011;11176;51.448;6.650;2023-03-14T04:03:56;8.65;;;1.70;;
22024;SDS011;11176;51.448;6.650;2023-03-14T04:06:24;5.03;;;1.70;;
22024;SDS011;11176;51.448;6.650;2023-03-14T04:08:53;10.13;;;2.17;;
22024;SDS011;11176;51.448;6.650;2023-03-14T04:11:34;6.68;;;1.50;;
22024;SDS011;11176;51.448;6.650;2023-03-14T04:14:11;10.13;;;1.95;;
22024;SDS011;11176;51.448;6.650;2023-03-14T04:16:38;7.57;;;1.50;;
22024;SDS011;11176;51.448;6.650;2023-03-14T04:19:10;10.13;;;2.05;;
22024;SDS011;11176;51.448;6.650;2023-03-14T04:21:36;4.28;;;1.27;;
22024;SDS011;11176;51.448;6.650;2023-03-14T04:24:08;5.05;;;1.33;;
22024;SDS011;11176;51.448;6.650;2023-03-14T04:26:35;5.88;;;1.38;;
22024;SDS011;11176;51.448;6.650;2023-03-14T04:29:01;4.25;;;1.08;;
22024;SDS011;11176;51.448;6.650;2023-03-14T04:31:29;5.43;;;1.20;;
22024;SDS011;11176;51.448;6.650;2023-03-14T04:33:55;4.50;;;1.15;;
22024;SDS011;11176;51.448;6.650;2023-03-14T04:36:32;6.50;;;1.10;;
22024;SDS011;11176;51.448;6.650;2023-03-14T04:39:03;6.05;;;1.27;;
22024;SDS011;11176;51.448;6.650;2023-03-14T04:41:32;5.82;;;1.20;;
22024;SDS011;11176;51.448;6.650;2023-03-14T04:43:59;5.22;;;1.42;;
22024;SDS011;11176;51.448;6.650;2023-03-14T04:46:26;3.97;;;1.00;;
22024;SDS011;11176;51.448;6.650;2023-03-14T04:48:52;4.60;;;0.93;;
22024;SDS011;11176;51.448;6.650;2023-03-14T04:51:19;3.95;;;0.95;;
22024;SDS011;11176;51.448;6.650;2023-03-14T04:53:45;5.10;;;1.02;;
22024;SDS011;11176;51.448;6.650;2023-03-14T04:56:13;4.57;;;1.25;;
22024;SDS011;11176;51.448;6.650;2023-03-14T04:58:41;4.97;;;0.80;;
22024;SDS011;11176;51.448;6.650;2023-03-14T05:01:09;5.47;;;1.05;;
22024;SDS011;11176;51.448;6.650;2023-03-14T05:03:40;2.85;;;0.70;;
22024;SDS011;11176;51.448;6.650;2023-03-14T05:06:18;8.77;;;1.30;;
22024;SDS011;11176;51.448;6.650;2023-03-14T05:09:14;3.28;;;0.88;;
22024;SDS011;11176;51.448;6.650;2023-03-14T05:12:20;3.10;;;0.70;;
22024;SDS011;11176;51.448;6.650;2023-03-14T05:14:55;2.92;;;0.70;;
22024;SDS011;11176;51.448;6.650;2023-03-14T05:17:42;4.13;;;0.82;;
22024;SDS011;11176;51.448;6.650;2023-03-14T05:20:27;3.53;;;1.00;;
22024;SDS011;11176;51.448;6.650;2023-03-14T05:23:13;4.55;;;0.90;;
22024;SDS011;11176;51.448;6.650;2023-03-14T05:25:59;5.15;;;0.90;;
22024;SDS011;11176;51.448;6.650;2023-03-14T05:28:38;3.47;;;0.88;;
22024;SDS011;11176;51.448;6.650;2023-03-14T05:31:11;3.97;;;1.00;;
22024;SDS011;11176;51.448;6.650;2023-03-14T05:33:54;6.38;;;0.75;;
22024;SDS011;11176;51.448;6.650;2023-03-14T05:36:29;3.22;;;0.80;;
22024;SDS011;11176;51.448;6.650;2023-03-14T05:39:25;4.72;;;0.80;;
22024;SDS011;11176;51.448;6.650;2023-03-14T05:42:09;3.28;;;1.00;;
22024;SDS011;11176;51.448;6.650;2023-03-14T05:44:59;2.00;;;0.63;;
22024;SDS011;11176;51.448;6.650;2023-03-14T05:47:42;2.08;;;0.70;;
22024;SDS011;11176;51.448;6.650;2023-03-14T05:50:22;4.07;;;1.08;;
22024;SDS011;11176;51.448;6.650;2023-03-14T05:53:14;3.80;;;1.00;;
22024;SDS011;11176;51.448;6.650;2023-03-14T05:56:10;3.80;;;0.70;;
22024;SDS011;11176;51.448;6.650;2023-03-14T05:59:06;3.55;;;0.95;;
22024;SDS011;11176;51.448;6.650;2023-03-14T06:01:58;4.63;;;0.98;;
22024;SDS011;11176;51.448;6.650;2023-03-14T06:04:27;3.42;;;1.20;;
22024;SDS011;11176;51.448;6.650;2023-03-14T06:06:57;3.35;;;1.00;;
22024;SDS011;11176;51.448;6.650;2023-03-14T06:09:24;3.20;;;0.70;;
22024;SDS011;11176;51.448;6.650;2023-03-14T06:11:54;3.92;;;1.10;;
22024;SDS011;11176;51.448;6.650;2023-03-14T06:14:21;3.95;;;1.20;;
22024;SDS011;11176;51.448;6.650;2023-03-14T06:16:49;4.57;;;1.38;;
22024;SDS011;11176;51.448;6.650;2023-03-14T06:19:18;4.18;;;1.48;;
22024;SDS011;11176;51.448;6.650;2023-03-14T06:21:45;3.58;;;1.10;;
22024;SDS011;11176;51.448;6.650;2023-03-14T06:24:11;5.35;;;1.42;;
22024;SDS011;11176;51.448;6.650;2023-03-14T06:26:43;4.70;;;1.30;;
22024;SDS011;11176;51.448;6.650;2023-03-14T06:29:09;6.00;;;0.88;;
22024;SDS011;11176;51.448;6.650;2023-03-14T06:31:37;2.67;;;0.80;;
22024;SDS011;11176;51.448;6.650;2023-03-14T06:34:05;1.95;;;0.85;;
22024;SDS011;11176;51.448;6.650;2023-03-14T06:36:32;1.70;;;0.73;;
22024;SDS011;11176;51.448;6.650;2023-03-14T06:38:59;4.00;;;1.08;;
22024;SDS011;11176;51.448;6.650;2023-03-14T06:41:27;2.15;;;0.85;;
22024;SDS011;11176;51.448;6.650;2023-03-14T06:43:56;2.17;;;0.80;;
22024;SDS011;11176;51.448;6.650;2023-03-14T06:46:22;2.92;;;0.95;;
22024;SDS011;11176;51.448;6.650;2023-03-14T06:48:49;1.45;;;0.60;;
22024;SDS011;11176;51.448;6.650;2023-03-14T06:51:16;3.95;;;0.73;;
22024;SDS011;11176;51.448;6.650;2023-03-14T06:53:42;2.03;;;0.70;;
22024;SDS011;11176;51.448;6.650;2023-03-14T06:56:11;3.08;;;0.90;;
22024;SDS011;11176;51.448;6.650;2023-03-14T06:58:37;3.55;;;0.90;;
22024;SDS011;11176;51.448;6.650;2023-03-14T07:01:10;1.65;;;0.90;;
22024;SDS011;11176;51.448;6.650;2023-03-14T07:03:46;1.48;;;0.80;;
22024;SDS011;11176;51.448;6.650;2023-03-14T07:06:13;2.30;;;0.80;;
22024;SDS011;11176;51.448;6.650;2023-03-14T07:08:39;3.28;;;0.70;;
22024;SDS011;11176;51.448;6.650;2023-03-14T07:11:06;1.30;;;0.73;;
22024;SDS011;11176;51.448;6.650;2023-03-14T07:13:33;2.17;;;0.70;;
22024;SDS011;11176;51.448;6.650;2023-03-14T07:16:04;1.83;;;0.75;;
22024;SDS011;11176;51.448;6.650;2023-03-14T07:18:31;2.08;;;0.85;;
22024;SDS011;11176;51.448;6.650;2023-03-14T07:20:58;1.92;;;0.85;;
22024;SDS011;11176;51.448;6.650;2023-03-14T07:23:25;1.70;;;0.95;;
22024;SDS011;11176;51.448;6.650;2023-03-14T07:25:52;2.42;;;1.10;;
22024;SDS011;11176;51.448;6.650;2023-03-14T07:28:22;2.55;;;0.93;;
22024;SDS011;11176;51.448;6.650;2023-03-14T07:30:55;1.83;;;1.00;;
22024;SDS011;11176;51.448;6.650;2023-03-14T07:33:27;2.95;;;1.00;;
22024;SDS011;11176;51.448;6.650;2023-03-14T07:35:54;1.85;;;1.00;;
22024;SDS011;11176;51.448;6.650;2023-03-14T07:38:20;2.75;;;1.17;;
22024;SDS011;11176;51.448;6.650;2023-03-14T07:41:05;3.55;;;1.40;;
22024;SDS011;11176;51.448;6.650;2023-03-14T07:43:36;4.13;;;1.30;;
22024;SDS011;11176;51.448;6.650;2023-03-14T07:46:02;4.68;;;1.50;;
22024;SDS011;11176;51.448;6.650;2023-03-14T07:48:29;3.97;;;1.42;;
22024;SDS011;11176;51.448;6.650;2023-03-14T07:50:55;2.00;;;1.30;;
22024;SDS011;11176;51.448;6.650;2023-03-14T07:53:23;3.70;;;1.50;;
22024;SDS011;11176;51.448;6.650;2023-03-14T07:55:50;3.35;;;1.52;;
22024;SDS011;11176;51.448;6.650;2023-03-14T07:58:19;3.38;;;1.48;;
22024;SDS011;11176;51.448;6.650;2023-03-14T08:00:48;2.45;;;1.55;;
22024;SDS011;11176;51.448;6.650;2023-03-14T08:03:15;3.10;;;1.60;;
22024;SDS011;11176;51.448;6.650;2023-03-14T08:05:43;2.40;;;1.45;;
22024;SDS011;11176;51.448;6.650;2023-03-14T08:08:10;4.72;;;1.98;;
22024;SDS011;11176;51.448;6.650;2023-03-14T08:10:37;3.30;;;1.83;;
22024;SDS011;11176;51.448;6.650;2023-03-14T08:13:03;3.15;;;1.77;;
22024;SDS011;11176;51.448;6.650;2023-03-14T08:15:30;2.60;;;1.80;;
22024;SDS011;11176;51.448;6.650;2023-03-14T08:17:57;3.58;;;1.42;;
22024;SDS011;11176;51.448;6.650;2023-03-14T08:20:25;2.63;;;1.40;;
22024;SDS011;11176;51.448;6.650;2023-03-14T08:22:57;2.47;;;1.38;;
22024;SDS011;11176;51.448;6.650;2023-03-14T08:25:24;2.35;;;1.60;;
22024;SDS011;11176;51.448;6.650;2023-03-14T08:27:52;3.55;;;1.55;;
22024;SDS011;11176;51.448;6.650;2023-03-14T08:30:19;3.05;;;1.70;;
22024;SDS011;11176;51.448;6.650;2023-03-14T08:32:46;2.40;;;1.23;;
22024;SDS011;11176;51.448;6.650;2023-03-14T08:35:13;2.60;;;1.50;;
22024;SDS011;11176;51.448;6.650;2023-03-14T08:37:40;2.90;;;1.63;;
22024;SDS011;11176;51.448;6.650;2023-03-14T08:40:07;4.15;;;1.58;;
22024;SDS011;11176;51.448;6.650;2023-03-14T08:42:36;2.10;;;1.50;;
22024;SDS011;11176;51.448;6.650;2023-03-14T08:45:05;2.78;;;1.58;;
22024;SDS011;11176;51.448;6.650;2023-03-14T08:47:32;4.25;;;1.40;;
22024;SDS011;11176;51.448;6.650;2023-03-14T08:49:59;1.90;;;1.20;;
22024;SDS011;11176;51.448;6.650;2023-03-14T08:52:25;3.08;;;1.30;;
22024;SDS011;11176;51.448;6.650;2023-03-14T08:54:52;3.05;;;1.33;;
22024;SDS011;11176;51.448;6.650;2023-03-14T08:57:18;2.58;;;1.30;;
22024;SDS011;11176;51.448;6.650;2023-03-14T08:59:45;4.03;;;1.20;;
22024;SDS011;11176;51.448;6.650;2023-03-14T09:02:11;2.05;;;0.90;;
22024;SDS011;11176;51.448;6.650;2023-03-14T09:04:39;1.10;;;0.30;;
22024;SDS011;11176;51.448;6.650;2023-03-14T09:07:05;1.33;;;0.40;;
22024;SDS011;11176;51.448;6.650;2023-03-14T09:09:31;3.53;;;0.50;;
22024;SDS011;11176;51.448;6.650;2023-03-14T09:11:58;1.08;;;0.50;;
22024;SDS011;11176;51.448;6.650;2023-03-14T09:14:25;2.17;;;0.52;;
22024;SDS011;11176;51.448;6.650;2023-03-14T09:16:52;1.60;;;0.50;;
22024;SDS011;11176;51.448;6.650;2023-03-14T09:19:18;0.75;;;0.40;;
22024;SDS011;11176;51.448;6.650;2023-03-14T09:21:45;1.30;;;0.50;;
22024;SDS011;11176;51.448;6.650;2023-03-14T09:24:11;2.53;;;0.60;;
22024;SDS011;11176;51.448;6.650;2023-03-14T09:26:38;2.25;;;0.80;;
22024;SDS011;11176;51.448;6.650;2023-03-14T09:29:04;1.50;;;0.73;;
22024;SDS011;11176;51.448;6.650;2023-03-14T09:31:31;2.60;;;0.90;;
22024;SDS011;11176;51.448;6.650;2023-03-14T09:33:57;1.77;;;1.08;;
22024;SDS011;11176;51.448;6.650;2023-03-14T09:36:24;1.80;;;1.15;;
22024;SDS011;11176;51.448;6.650;2023-03-14T09:38:50;2.58;;;1.20;;
22024;SDS011;11176;51.448;6.650;2023-03-14T09:43:50;3.80;;;1.55;;
22024;SDS011;11176;51.448;6.650;2023-03-14T09:46:26;2.60;;;1.40;;
22024;SDS011;11176;51.448;6.650;2023-03-14T09:48:54;2.70;;;1.50;;
22024;SDS011;11176;51.448;6.650;2023-03-14T09:51:20;2.92;;;1.90;;
22024;SDS011;11176;51.448;6.650;2023-03-14T09:53:50;3.88;;;2.08;;
22024;SDS011;11176;51.448;6.650;2023-03-14T09:56:25;3.70;;;2.15;;
22024;SDS011;11176;51.448;6.650;2023-03-14T09:59:00;3.35;;;2.05;;
22024;SDS011;11176;51.448;6.650;2023-03-14T10:01:32;3.40;;;2.03;;
22024;SDS011;11176;51.448;6.650;2023-03-14T10:04:04;4.97;;;1.77;;
22024;SDS011;11176;51.448;6.650;2023-03-14T10:06:43;3.28;;;1.30;;
22024;SDS011;11176;51.448;6.650;2023-03-14T10:09:11;1.70;;;1.13;;
22024;SDS011;11176;51.448;6.650;2023-03-14T10:11:45;3.40;;;1.40;;
22024;SDS011;11176;51.448;6.650;2023-03-14T10:14:11;3.38;;;1.40;;
22024;SDS011;11176;51.448;6.650;2023-03-14T10:16:43;2.75;;;1.40;;
22024;SDS011;11176;51.448;6.650;2023-03-14T10:19:12;3.45;;;1.40;;
22024;SDS011;11176;51.448;6.650;2023-03-14T10:21:43;2.50;;;1.40;;
22024;SDS011;11176;51.448;6.650;2023-03-14T10:24:18;3.53;;;1.48;;
22024;SDS011;11176;51.448;6.650;2023-03-14T10:26:48;4.57;;;1.13;;
22024;SDS011;11176;51.448;6.650;2023-03-14T10:29:18;2.92;;;0.70;;
22024;SDS011;11176;51.448;6.650;2023-03-14T10:31:50;2.75;;;0.80;;
22024;SDS011;11176;51.448;6.650;2023-03-14T10:34:29;4.38;;;0.93;;
22024;SDS011;11176;51.448;6.650;2023-03-14T10:37:22;2.75;;;0.98;;
22024;SDS011;11176;51.448;6.650;2023-03-14T10:39:52;2.05;;;0.77;;
22024;SDS011;11176;51.448;6.650;2023-03-14T10:42:25;2.10;;;0.80;;
22024;SDS011;11176;51.448;6.650;2023-03-14T10:44:56;2.58;;;1.10;;
22024;SDS011;11176;51.448;6.650;2023-03-14T10:47:26;1.58;;;0.75;;
22024;SDS011;11176;51.448;6.650;2023-03-14T10:49:54;2.85;;;0.88;;
22024;SDS011;11176;51.448;6.650;2023-03-14T10:52:23;3.63;;;1.30;;
22024;SDS011;11176;51.448;6.650;2023-03-14T10:55:01;2.78;;;1.02;;
22024;SDS011;11176;51.448;6.650;2023-03-14T10:57:39;3.92;;;0.93;;
22024;SDS011;11176;51.448;6.650;2023-03-14T11:00:20;3.10;;;1.13;;
22024;SDS011;11176;51.448;6.650;2023-03-14T11:05:46;4.93;;;0.90;;
22024;SDS011;11176;51.448;6.650;2023-03-14T11:08:21;2.90;;;1.10;;
22024;SDS011;11176;51.448;6.650;2023-03-14T11:11:04;3.80;;;0.80;;
22024;SDS011;11176;51.448;6.650;2023-03-14T11:13:39;3.33;;;0.90;;
22024;SDS011;11176;51.448;6.650;2023-03-14T11:16:19;6.72;;;1.20;;
22024;SDS011;11176;51.448;6.650;2023-03-14T11:22:03;2.75;;;1.30;;
22024;SDS011;11176;51.448;6.650;2023-03-14T11:24:51;3.97;;;1.38;;
22024;SDS011;11176;51.448;6.650;2023-03-14T11:27:45;5.45;;;1.42;;
22024;SDS011;11176;51.448;6.650;2023-03-14T11:33:39;3.42;;;1.13;;
22024;SDS011;11176;51.448;6.650;2023-03-14T11:36:11;3.03;;;1.20;;
22024;SDS011;11176;51.448;6.650;2023-03-14T11:38:52;3.15;;;1.20;;
22024;SDS011;11176;51.448;6.650;2023-03-14T11:41:24;4.30;;;1.02;;
22024;SDS011;11176;51.448;6.650;2023-03-14T11:44:30;6.85;;;1.38;;
22024;SDS011;11176;51.448;6.650;2023-03-14T11:47:00;4.90;;;1.30;;
22024;SDS011;11176;51.448;6.650;2023-03-14T11:52:13;5.25;;;1.20;;
22024;SDS011;11176;51.448;6.650;2023-03-14T11:54:48;6.88;;;1.50;;
22024;SDS011;11176;51.448;6.650;2023-03-14T11:57:21;3.50;;;1.15;;
22024;SDS011;11176;51.448;6.650;2023-03-14T12:02:41;7.32;;;2.20;;
22024;SDS011;11176;51.448;6.650;2023-03-14T12:10:46;7.90;;;1.92;;
22024;SDS011;11176;51.448;6.650;2023-03-14T12:13:17;7.88;;;2.72;;
22024;SDS011;11176;51.448;6.650;2023-03-14T12:15:49;6.05;;;1.73;;
22024;SDS011;11176;51.448;6.650;2023-03-14T12:18:27;6.72;;;2.22;;
22024;SDS011;11176;51.448;6.650;2023-03-14T12:20:57;8.23;;;2.10;;
22024;SDS011;11176;51.448;6.650;2023-03-14T12:23:26;6.05;;;1.48;;
22024;SDS011;11176;51.448;6.650;2023-03-14T12:26:07;3.50;;;0.90;;
22024;SDS011;11176;51.448;6.650;2023-03-14T12:28:39;10.77;;;1.95;;
22024;SDS011;11176;51.448;6.650;2023-03-14T12:39:58;9.25;;;2.03;;
22024;SDS011;11176;51.448;6.650;2023-03-14T12:42:43;14.60;;;2.85;;
22024;SDS011;11176;51.448;6.650;2023-03-14T12:45:22;12.15;;;2.78;;
22024;SDS011;11176;51.448;6.650;2023-03-14T12:48:15;14.98;;;2.63;;
22024;SDS011;11176;51.448;6.650;2023-03-14T12:50:45;12.68;;;2.33;;
22024;SDS011;11176;51.448;6.650;2023-03-14T12:56:55;12.52;;;3.05;;
22024;SDS011;11176;51.448;6.650;2023-03-14T13:07:10;12.88;;;2.70;;
22024;SDS011;11176;51.448;6.650;2023-03-14T13:09:58;10.93;;;2.67;;
22024;SDS011;11176;51.448;6.650;2023-03-14T13:12:30;10.45;;;2.70;;
22024;SDS011;11176;51.448;6.650;2023-03-14T13:15:15;14.52;;;3.20;;
22024;SDS011;11176;51.448;6.650;2023-03-14T13:17:53;7.80;;;2.60;;
22024;SDS011;11176;51.448;6.650;2023-03-14T13:20:34;11.65;;;3.70;;
22024;SDS011;11176;51.448;6.650;2023-03-14T13:23:04;16.13;;;3.20;;
22024;SDS011;11176;51.448;6.650;2023-03-14T13:25:34;12.43;;;3.10;;
22024;SDS011;11176;51.448;6.650;2023-03-14T13:28:02;14.93;;;3.05;;
22024;SDS011;11176;51.448;6.650;2023-03-14T13:30:39;14.20;;;3.13;;
22024;SDS011;11176;51.448;6.650;2023-03-14T13:33:11;17.80;;;3.45;;
22024;SDS011;11176;51.448;6.650;2023-03-14T13:35:47;14.32;;;3.35;;
22024;SDS011;11176;51.448;6.650;2023-03-14T13:38:22;15.02;;;3.08;;
22024;SDS011;11176;51.448;6.650;2023-03-14T13:40:51;15.10;;;3.38;;
22024;SDS011;11176;51.448;6.650;2023-03-14T13:43:41;11.35;;;3.22;;
22024;SDS011;11176;51.448;6.650;2023-03-14T13:48:44;15.98;;;3.50;;
22024;SDS011;11176;51.448;6.650;2023-03-14T13:51:13;16.75;;;3.10;;
22024;SDS011;11176;51.448;6.650;2023-03-14T13:53:47;13.95;;;3.38;;
22024;SDS011;11176;51.448;6.650;2023-03-14T13:56:15;17.20;;;3.22;;
22024;SDS011;11176;51.448;6.650;2023-03-14T13:58:44;17.58;;;3.30;;
22024;SDS011;11176;51.448;6.650;2023-03-14T14:01:17;15.00;;;2.85;;
22024;SDS011;11176;51.448;6.650;2023-03-14T14:03:57;13.20;;;2.60;;
22024;SDS011;11176;51.448;6.650;2023-03-14T14:06:29;12.02;;;2.30;;
22024;SDS011;11176;51.448;6.650;2023-03-14T14:08:57;9.98;;;2.17;;
22024;SDS011;11176;51.448;6.650;2023-03-14T14:11:32;8.18;;;2.10;;
22024;SDS011;11176;51.448;6.650;2023-03-14T14:14:18;11.73;;;1.80;;
22024;SDS011;11176;51.448;6.650;2023-03-14T14:16:51;6.93;;;2.00;;
22024;SDS011;11176;51.448;6.650;2023-03-14T14:19:19;6.28;;;1.60;;
22024;SDS011;11176;51.448;6.650;2023-03-14T14:21:49;6.03;;;1.50;;
22024;SDS011;11176;51.448;6.650;2023-03-14T14:24:17;10.45;;;2.00;;
22024;SDS011;11176;51.448;6.650;2023-03-14T14:26:50;8.10;;;1.42;;
22024;SDS011;11176;51.448;6.650;2023-03-14T14:29:31;9.00;;;2.00;;
22024;SDS011;11176;51.448;6.650;2023-03-14T14:32:11;6.82;;;1.70;;
22024;SDS011;11176;51.448;6.650;2023-03-14T14:34:40;6.63;;;1.48;;
22024;SDS011;11176;51.448;6.650;2023-03-14T14:37:19;5.68;;;1.38;;
22024;SDS011;11176;51.448;6.650;2023-03-14T14:39:52;5.47;;;1.55;;
22024;SDS011;11176;51.448;6.650;2023-03-14T14:42:24;6.00;;;1.40;;
22024;SDS011;11176;51.448;6.650;2023-03-14T14:44:53;9.00;;;1.80;;
22024;SDS011;11176;51.448;6.650;2023-03-14T14:47:22;7.20;;;2.08;;
22024;SDS011;11176;51.448;6.650;2023-03-14T14:49:51;6.95;;;1.35;;
22024;SDS011;11176;51.448;6.650;2023-03-14T14:54:59;6.68;;;1.70;;
22024;SDS011;11176;51.448;6.650;2023-03-14T14:57:49;7.20;;;1.88;;
22024;SDS011;11176;51.448;6.650;2023-03-14T15:00:20;7.43;;;1.65;;
22024;SDS011;11176;51.448;6.650;2023-03-14T15:02:49;10.02;;;1.95;;
22024;SDS011;11176;51.448;6.650;2023-03-14T15:05:21;7.47;;;1.60;;
22024;SDS011;11176;51.448;6.650;2023-03-14T15:07:49;4.45;;;1.30;;
22024;SDS011;11176;51.448;6.650;2023-03-14T15:10:18;5.65;;;1.50;;
22024;SDS011;11176;51.448;6.650;2023-03-14T15:12:46;7.47;;;1.70;;
22024;SDS011;11176;51.448;6.650;2023-03-14T15:15:13;6.47;;;1.48;;
22024;SDS011;11176;51.448;6.650;2023-03-14T15:17:41;10.38;;;1.73;;
22024;SDS011;11176;51.448;6.650;2023-03-14T15:20:11;5.90;;;1.35;;
22024;SDS011;11176;51.448;6.650;2023-03-14T15:22:40;6.18;;;1.42;;
22024;SDS011;11176;51.448;6.650;2023-03-14T15:25:07;8.93;;;1.67;;
22024;SDS011;11176;51.448;6.650;2023-03-14T15:27:52;5.60;;;1.27;;
22024;SDS011;11176;51.448;6.650;2023-03-14T15:30:19;6.43;;;1.65;;
22024;SDS011;11176;51.448;6.650;2023-03-14T15:32:45;4.35;;;1.20;;
22024;SDS011;11176;51.448;6.650;2023-03-14T15:35:12;3.35;;;1.35;;
22024;SDS011;11176;51.448;6.650;2023-03-14T15:37:43;6.68;;;1.27;;
22024;SDS011;11176;51.448;6.650;2023-03-14T15:40:10;6.90;;;1.30;;
22024;SDS011;11176;51.448;6.650;2023-03-14T15:42:40;7.47;;;1.45;;
22024;SDS011;11176;51.448;6.650;2023-03-14T15:45:07;6.32;;;1.77;;
22024;SDS011;11176;51.448;6.650;2023-03-14T15:47:33;6.50;;;1.73;;
22024;SDS011;11176;51.448;6.650;2023-03-14T15:50:00;7.85;;;1.40;;
22024;SDS011;11176;51.448;6.650;2023-03-14T15:52:27;5.22;;;1.27;;
22024;SDS011;11176;51.448;6.650;2023-03-14T15:54:53;7.38;;;1.30;;
22024;SDS011;11176;51.448;6.650;2023-03-14T15:57:20;8.48;;;1.60;;
22024;SDS011;11176;51.448;6.650;2023-03-14T15:59:46;10.30;;;1.77;;
22024;SDS011;11176;51.448;6.650;2023-03-14T16:02:12;7.68;;;1.63;;
22024;SDS011;11176;51.448;6.650;2023-03-14T16:04:39;7.88;;;1.50;;
22024;SDS011;11176;51.448;6.650;2023-03-14T16:07:05;6.60;;;1.33;;
22024;SDS011;11176;51.448;6.650;2023-03-14T16:09:32;7.43;;;1.40;;